createdAt,value
2023-03-03T00:02:30.551Z,13.30
2023-03-03T00:05:34.523Z,13.24
2023-03-03T00:08:37.702Z,13.11
2023-03-03T00:11:41.373Z,13.11
2023-03-03T00:14:43.824Z,13.19
2023-03-03T00:17:48.171Z,13.05
2023-03-03T00:20:54.446Z,12.93
2023-03-03T00:24:41.511Z,12.97
2023-03-03T00:27:43.875Z,12.97
2023-03-03T00:30:46.323Z,13.05
2023-03-03T00:33:54.951Z,13.02
2023-03-03T00:36:58.312Z,13.04
2023-03-03T00:40:22.108Z,13.08
2023-03-03T00:43:28.365Z,13.07
2023-03-03T00:46:31.123Z,13.15
2023-03-03T00:49:33.883Z,13.03
2023-03-03T00:53:01.346Z,13.17
2023-03-03T00:56:03.511Z,13.08
2023-03-03T00:59:08.032Z,13.01
2023-03-03T01:02:10.472Z,13.09
2023-03-03T01:05:17.725Z,13.01
2023-03-03T01:08:22.720Z,12.81
2023-03-03T01:11:28.692Z,12.84
2023-03-03T01:14:32.424Z,12.95
2023-03-03T01:17:36.873Z,12.84
2023-03-03T01:20:39.446Z,12.85
2023-03-03T01:23:41.604Z,12.84
2023-03-03T01:26:46.839Z,12.92
2023-03-03T01:29:48.878Z,12.77
2023-03-03T01:32:50.908Z,12.72
2023-03-03T01:35:57.111Z,12.77
2023-03-03T01:39:00.564Z,12.81
2023-03-03T01:42:04.132Z,12.66
2023-03-03T01:45:31.457Z,12.77
2023-03-03T01:48:44.930Z,12.80
2023-03-03T01:51:54.193Z,12.70
2023-03-03T01:55:00.968Z,12.76
2023-03-03T01:58:11.380Z,12.67
2023-03-03T02:01:25.031Z,12.74
2023-03-03T02:04:27.778Z,12.77
2023-03-03T02:07:31.926Z,12.67
2023-03-03T02:10:36.146Z,12.76
2023-03-03T02:13:42.562Z,12.78
2023-03-03T02:16:45.071Z,12.78
2023-03-03T02:20:11.215Z,12.86
2023-03-03T02:23:38.442Z,12.84
2023-03-03T02:26:42.196Z,12.85
2023-03-03T02:29:45.987Z,12.83
2023-03-03T02:32:48.418Z,12.80
2023-03-03T02:35:52.077Z,12.77
2023-03-03T02:39:20.857Z,12.58
2023-03-03T02:42:29.989Z,12.71
2023-03-03T02:45:33.886Z,12.58
2023-03-03T02:48:36.027Z,12.57
2023-03-03T02:51:38.917Z,12.63
2023-03-03T02:54:41.121Z,12.39
2023-03-03T02:57:43.602Z,12.42
2023-03-03T03:00:48.250Z,12.55
2023-03-03T03:03:54.175Z,12.45
2023-03-03T03:06:58.430Z,12.61
2023-03-03T03:10:02.460Z,12.57
2023-03-03T03:13:06.971Z,12.56
2023-03-03T03:16:09.591Z,12.35
2023-03-03T03:19:11.977Z,12.46
2023-03-03T03:22:15.564Z,12.21
2023-03-03T03:25:19.530Z,12.35
2023-03-03T03:28:23.504Z,12.36
2023-03-03T03:31:26.076Z,12.40
2023-03-03T03:34:28.123Z,12.34
2023-03-03T03:37:32.024Z,12.31
2023-03-03T03:40:34.190Z,12.38
2023-03-03T03:43:36.484Z,12.46
2023-03-03T03:46:39.887Z,12.48
2023-03-03T03:49:42.783Z,12.48
2023-03-03T03:52:45.041Z,12.52
2023-03-03T03:55:48.307Z,12.59
2023-03-03T03:58:52.016Z,12.57
2023-03-03T04:01:54.090Z,12.66
2023-03-03T04:05:00.567Z,12.60
2023-03-03T04:08:03.744Z,12.55
2023-03-03T04:11:05.909Z,12.53
2023-03-03T04:14:08.129Z,12.42
2023-03-03T04:17:22.577Z,12.39
2023-03-03T04:20:24.743Z,12.21
2023-03-03T04:23:29.113Z,12.30
2023-03-03T04:26:32.037Z,12.26
2023-03-03T04:29:36.374Z,12.34
2023-03-03T04:32:38.972Z,12.22
2023-03-03T04:35:45.743Z,12.16
2023-03-03T04:38:48.030Z,12.27
2023-03-03T04:41:50.494Z,12.38
2023-03-03T04:44:53.746Z,12.39
2023-03-03T04:47:56.134Z,12.37
2023-03-03T04:50:58.477Z,12.19
2023-03-03T04:54:03.111Z,12.17
2023-03-03T04:57:05.437Z,12.20
2023-03-03T05:00:09.026Z,12.11
2023-03-03T05:03:13.040Z,12.05
2023-03-03T05:06:20.934Z,12.14
2023-03-03T05:09:24.979Z,12.17
2023-03-03T05:12:30.246Z,12.21
2023-03-03T05:15:33.060Z,12.19
2023-03-03T05:18:35.216Z,12.22
2023-03-03T05:21:38.025Z,12.28
2023-03-03T05:24:40.212Z,12.24
2023-03-03T05:27:44.176Z,12.20
2023-03-03T05:30:46.550Z,12.45
2023-03-03T05:33:48.689Z,12.35
2023-03-03T05:36:51.066Z,12.43
2023-03-03T05:39:53.160Z,12.41
2023-03-03T05:42:55.478Z,12.39
2023-03-03T05:45:59.242Z,12.33
2023-03-03T05:49:02.466Z,12.38
2023-03-03T05:52:04.737Z,12.32
2023-03-03T05:55:07.257Z,12.37
2023-03-03T05:58:09.588Z,12.31
2023-03-03T06:01:12.373Z,12.31
2023-03-03T06:04:14.839Z,12.31
2023-03-03T06:07:17.091Z,12.40
2023-03-03T06:10:19.329Z,12.61
2023-03-03T06:13:25.568Z,12.31
2023-03-03T06:16:27.521Z,12.59
2023-03-03T06:19:30.400Z,12.92
2023-03-03T06:22:34.440Z,13.99
2023-03-03T06:25:36.428Z,14.59
2023-03-03T06:28:38.409Z,14.63
2023-03-03T06:31:40.389Z,14.26
2023-03-03T06:34:42.303Z,13.93
2023-03-03T06:37:44.472Z,14.50
2023-03-03T06:40:47.300Z,14.19
2023-03-03T06:43:49.349Z,14.20
2023-03-03T06:46:51.253Z,14.07
2023-03-03T06:49:53.224Z,14.08
2023-03-03T06:53:16.010Z,14.04
2023-03-03T06:56:19.961Z,14.26
2023-03-03T06:59:22.521Z,13.85
2023-03-03T07:02:24.719Z,14.50
2023-03-03T07:05:29.099Z,15.85
2023-03-03T07:08:32.537Z,15.57
2023-03-03T07:11:37.318Z,14.25
2023-03-03T07:15:12.798Z,13.67
2023-03-03T07:18:30.114Z,14.07
2023-03-03T07:21:36.454Z,13.96
2023-03-03T07:24:41.777Z,13.97
2023-03-03T07:27:44.226Z,13.97
2023-03-03T07:30:46.472Z,14.06
2023-03-03T07:33:48.457Z,13.81
2023-03-03T07:36:54.327Z,13.65
2023-03-03T07:39:57.001Z,13.62
2023-03-03T07:42:59.170Z,13.62
2023-03-03T07:46:10.731Z,13.63
2023-03-03T07:49:36.098Z,13.77
2023-03-03T07:52:43.435Z,13.82
2023-03-03T07:55:45.946Z,14.77
2023-03-03T07:58:48.443Z,14.91
2023-03-03T08:01:56.691Z,15.20
2023-03-03T08:04:58.805Z,15.55
2023-03-03T08:08:32.803Z,16.54
2023-03-03T08:11:34.907Z,17.25
2023-03-03T08:14:38.872Z,17.76
2023-03-03T08:17:43.494Z,18.60
2023-03-03T08:20:48.271Z,19.08
2023-03-03T08:23:51.916Z,19.73
2023-03-03T08:26:54.049Z,20.50
2023-03-03T08:29:56.199Z,20.72
2023-03-03T08:32:58.455Z,20.78
2023-03-03T08:36:01.148Z,19.79
2023-03-03T08:39:05.184Z,18.75
2023-03-03T08:42:07.168Z,18.32
2023-03-03T08:45:10.154Z,18.33
2023-03-03T08:48:12.556Z,18.38
2023-03-03T08:51:20.320Z,18.38
2023-03-03T08:54:22.517Z,18.32
2023-03-03T08:57:24.925Z,18.47
2023-03-03T09:00:27.178Z,18.69
2023-03-03T09:03:30.042Z,21.65
2023-03-03T09:06:32.170Z,23.14
2023-03-03T09:09:34.183Z,23.73
2023-03-03T09:13:04.230Z,24.00
2023-03-03T09:16:17.084Z,23.94
2023-03-03T09:19:27.094Z,23.37
2023-03-03T09:22:29.880Z,22.96
2023-03-03T09:25:37.749Z,21.84
2023-03-03T09:28:39.910Z,19.93
2023-03-03T09:31:48.724Z,18.67
2023-03-03T09:34:50.856Z,17.94
2023-03-03T09:37:52.960Z,17.67
2023-03-03T09:40:57.798Z,17.40
2023-03-03T09:44:12.298Z,17.55
2023-03-03T09:47:39.727Z,17.65
2023-03-03T09:50:44.668Z,17.73
2023-03-03T09:54:09.180Z,17.82
2023-03-03T09:57:11.157Z,17.84
2023-03-03T10:00:18.999Z,18.05
2023-03-03T10:03:21.280Z,18.26
2023-03-03T10:06:39.310Z,18.37
2023-03-03T10:10:16.903Z,18.36
2023-03-03T10:13:37.682Z,18.24
2023-03-03T10:16:55.245Z,18.00
2023-03-03T10:20:18.484Z,17.99
2023-03-03T10:23:28.090Z,17.91
2023-03-03T10:27:11.706Z,17.99
2023-03-03T10:30:39.877Z,17.78
2023-03-03T10:34:10.438Z,17.87
2023-03-03T10:37:21.166Z,17.82
2023-03-03T10:40:51.709Z,17.94
2023-03-03T10:44:11.184Z,18.06
2023-03-03T10:47:29.320Z,18.11
2023-03-03T10:50:54.507Z,18.07
2023-03-03T10:54:14.892Z,17.98
2023-03-03T10:57:31.946Z,18.00
2023-03-03T11:00:36.563Z,17.94
2023-03-03T11:04:08.733Z,17.99
2023-03-03T11:07:33.062Z,18.07
2023-03-03T11:11:10.128Z,17.99
2023-03-03T11:14:29.704Z,17.82
2023-03-03T11:17:52.818Z,17.84
2023-03-03T11:21:04.047Z,17.97
2023-03-03T11:24:35.482Z,17.80
2023-03-03T11:27:55.633Z,17.70
2023-03-03T11:31:25.683Z,17.64
2023-03-03T11:35:13.286Z,17.34
2023-03-03T11:38:40.135Z,17.41
2023-03-03T11:42:09.573Z,17.37
2023-03-03T11:45:20.170Z,17.41
2023-03-03T11:48:36.301Z,17.32
2023-03-03T11:51:43.982Z,17.23
2023-03-03T11:54:53.448Z,17.24
2023-03-03T11:58:16.691Z,17.20
2023-03-03T12:01:30.982Z,17.15
2023-03-03T12:04:39.791Z,17.28
2023-03-03T12:08:08.976Z,17.35
2023-03-03T12:11:26.070Z,17.34
2023-03-03T12:14:38.805Z,17.54
2023-03-03T12:17:55.678Z,17.56
2023-03-03T12:21:13.396Z,17.69
2023-03-03T12:24:21.492Z,17.68
2023-03-03T12:27:30.203Z,17.64
2023-03-03T12:31:02.944Z,17.69
2023-03-03T12:34:23.372Z,17.61
2023-03-03T12:37:47.222Z,17.59
2023-03-03T12:41:04.161Z,17.55
2023-03-03T12:44:21.517Z,17.57
2023-03-03T12:47:50.305Z,17.54
2023-03-03T12:51:24.594Z,17.52
2023-03-03T12:54:46.829Z,18.64
2023-03-03T12:57:57.704Z,19.60
2023-03-03T13:01:28.306Z,19.24
2023-03-03T13:04:42.825Z,20.58
2023-03-03T13:07:58.239Z,20.64
2023-03-03T13:11:09.546Z,20.56
2023-03-03T13:14:14.443Z,20.67
2023-03-03T13:17:16.732Z,20.90
2023-03-03T13:20:42.677Z,20.84
2023-03-03T13:24:28.700Z,20.60
2023-03-03T13:27:39.845Z,20.29
2023-03-03T13:30:49.024Z,20.12
2023-03-03T13:33:55.685Z,20.06
2023-03-03T13:37:05.437Z,19.77
2023-03-03T13:40:13.547Z,19.77
2023-03-03T13:43:20.901Z,19.57
2023-03-03T13:46:22.868Z,19.47
2023-03-03T13:49:30.633Z,19.30
2023-03-03T13:52:37.042Z,19.12
2023-03-03T13:56:01.904Z,19.06
2023-03-03T13:59:50.751Z,18.87
2023-03-03T14:03:20.145Z,18.82
2023-03-03T14:06:24.907Z,18.68
2023-03-03T14:09:56.945Z,18.53
2023-03-03T14:13:24.068Z,18.41
2023-03-03T14:16:47.286Z,18.27
2023-03-03T14:20:03.193Z,18.23
2023-03-03T14:23:16.830Z,18.28
2023-03-03T14:26:19.198Z,18.43
2023-03-03T14:29:32.355Z,18.81
2023-03-03T14:32:45.146Z,19.03
2023-03-03T14:36:11.791Z,19.19
2023-03-03T14:39:35.698Z,19.32
2023-03-03T14:42:50.629Z,19.56
2023-03-03T14:45:56.634Z,19.67
2023-03-03T14:49:01.159Z,19.70
2023-03-03T14:52:15.140Z,19.52
2023-03-03T14:55:36.222Z,19.75
2023-03-03T14:58:42.533Z,19.73
2023-03-03T15:01:45.312Z,19.60
2023-03-03T15:04:48.875Z,19.56
2023-03-03T15:07:57.553Z,19.41
2023-03-03T15:11:25.231Z,19.15
2023-03-03T15:14:30.731Z,19.05
2023-03-03T15:17:44.475Z,18.97
2023-03-03T15:21:13.709Z,18.81
2023-03-03T15:24:39.042Z,18.64
2023-03-03T15:28:08.372Z,18.51
2023-03-03T15:31:38.481Z,18.45
2023-03-03T15:34:49.081Z,18.27
2023-03-03T15:37:59.744Z,18.09
2023-03-03T15:41:24.972Z,17.97
2023-03-03T15:44:40.697Z,17.79
2023-03-03T15:47:53.340Z,17.80
2023-03-03T15:51:13.721Z,17.78
2023-03-03T15:54:52.658Z,17.71
2023-03-03T15:57:57.518Z,17.69
2023-03-03T16:01:16.416Z,17.54
2023-03-03T16:04:22.616Z,17.73
2023-03-03T16:07:37.794Z,18.05
2023-03-03T16:10:49.093Z,18.40
2023-03-03T16:14:32.677Z,18.19
2023-03-03T16:17:55.675Z,18.41
2023-03-03T16:21:11.843Z,18.21
2023-03-03T16:25:00.256Z,18.17
2023-03-03T16:28:25.066Z,18.03
2023-03-03T16:31:34.956Z,17.97
2023-03-03T16:34:42.385Z,17.72
2023-03-03T16:37:58.850Z,17.74
2023-03-03T16:41:03.587Z,17.44
2023-03-03T16:44:52.720Z,17.11
2023-03-03T16:47:57.724Z,16.93
2023-03-03T16:51:23.550Z,16.91
2023-03-03T16:54:55.841Z,16.81
2023-03-03T16:58:37.003Z,16.82
2023-03-03T17:01:43.564Z,16.67
2023-03-03T17:05:08.591Z,16.66
2023-03-03T17:08:53.011Z,16.60
2023-03-03T17:12:00.765Z,16.53
2023-03-03T17:15:21.396Z,16.37
2023-03-03T17:18:41.555Z,16.32
2023-03-03T17:22:07.319Z,16.24
2023-03-03T17:25:23.102Z,16.25
2023-03-03T17:28:40.343Z,16.14
2023-03-03T17:31:51.332Z,16.09
2023-03-03T17:35:11.906Z,15.92
2023-03-03T17:38:32.203Z,15.80
2023-03-03T17:41:49.354Z,15.64
2023-03-03T17:44:57.464Z,15.76
2023-03-03T17:48:27.284Z,15.74
2023-03-03T17:51:32.003Z,15.83
2023-03-03T17:54:36.746Z,15.97
2023-03-03T17:58:09.381Z,15.93
2023-03-03T18:01:26.876Z,15.88
2023-03-03T18:05:15.621Z,15.99
2023-03-03T18:08:43.673Z,16.13
2023-03-03T18:12:26.659Z,15.98
2023-03-03T18:16:12.194Z,16.18
2023-03-03T18:19:56.749Z,16.85
2023-03-03T18:23:39.847Z,16.89
2023-03-03T18:26:42.715Z,16.66
2023-03-03T18:30:21.525Z,16.83
2023-03-03T18:34:01.745Z,16.92
2023-03-03T18:37:03.688Z,17.04
2023-03-03T18:40:06.109Z,16.87
2023-03-03T18:43:45.137Z,16.60
2023-03-03T18:46:49.126Z,16.31
2023-03-03T18:49:57.673Z,16.17
2023-03-03T18:53:20.142Z,16.00
2023-03-03T18:56:45.487Z,16.00
2023-03-03T19:00:14.503Z,15.84
2023-03-03T19:03:31.229Z,15.66
2023-03-03T19:06:38.271Z,15.47
2023-03-03T19:09:57.259Z,15.80
2023-03-03T19:13:00.194Z,15.86
2023-03-03T19:16:07.952Z,16.42
2023-03-03T19:19:13.009Z,17.06
2023-03-03T19:22:32.924Z,17.07
2023-03-03T19:25:35.893Z,16.83
2023-03-03T19:28:50.379Z,16.71
2023-03-03T19:32:13.918Z,16.56
2023-03-03T19:35:34.891Z,16.70
2023-03-03T19:43:09.445Z,16.69
2023-03-03T19:46:41.026Z,16.58
2023-03-03T19:50:05.358Z,16.50
2023-03-03T19:53:59.986Z,16.41
2023-03-03T19:57:05.502Z,16.28
2023-03-03T20:00:28.701Z,16.20
2023-03-03T20:04:04.370Z,16.12
2023-03-03T20:07:43.790Z,16.02
2023-03-03T20:10:45.806Z,15.85
2023-03-03T20:14:01.970Z,15.76
2023-03-03T20:17:25.168Z,15.87
2023-03-03T20:20:36.108Z,15.89
2023-03-03T20:23:50.143Z,15.75
2023-03-03T20:27:10.508Z,15.70
2023-03-03T20:30:45.329Z,15.91
2023-03-03T20:33:56.295Z,15.83
2023-03-03T20:37:34.459Z,15.81
2023-03-03T20:40:50.499Z,15.87
2023-03-03T20:44:21.591Z,15.95
2023-03-03T20:47:38.574Z,15.92
2023-03-03T20:51:10.134Z,15.85
2023-03-03T20:54:47.871Z,15.80
2023-03-03T20:57:59.140Z,15.60
2023-03-03T21:01:08.599Z,15.71
2023-03-03T21:04:22.755Z,15.66
2023-03-03T21:07:26.556Z,15.63
2023-03-03T21:10:37.978Z,15.62
2023-03-03T21:13:45.437Z,15.53
2023-03-03T21:16:48.865Z,15.66
2023-03-03T21:19:54.289Z,15.39
2023-03-03T21:22:57.948Z,15.37
2023-03-03T21:26:00.248Z,15.46
2023-03-03T21:29:03.580Z,15.33
2023-03-03T21:32:09.442Z,15.46
2023-03-03T21:35:15.225Z,15.45
2023-03-03T21:38:39.588Z,15.53
2023-03-03T21:42:13.160Z,15.69
2023-03-03T21:45:17.389Z,15.43
2023-03-03T21:48:20.542Z,15.55
2023-03-03T21:51:24.476Z,15.57
2023-03-03T21:54:26.926Z,15.62
2023-03-03T21:57:29.072Z,15.47
2023-03-03T22:00:32.875Z,15.37
2023-03-03T22:03:35.756Z,15.29
2023-03-03T22:06:37.935Z,15.13
2023-03-03T22:09:40.034Z,15.22
2023-03-03T22:12:42.066Z,15.27
2023-03-03T22:15:44.086Z,15.29
2023-03-03T22:18:46.159Z,15.42
2023-03-03T22:21:49.856Z,15.28
2023-03-03T22:24:52.009Z,15.19
2023-03-03T22:27:54.102Z,15.09
2023-03-03T22:30:57.043Z,15.10
2023-03-03T22:33:59.500Z,14.98
2023-03-03T22:37:01.606Z,15.05
2023-03-03T22:40:04.088Z,14.96
2023-03-03T22:43:10.892Z,14.84
2023-03-03T22:46:13.013Z,14.67
2023-03-03T22:49:15.099Z,14.55
2023-03-03T22:52:17.107Z,14.56
2023-03-03T22:55:19.249Z,14.45
2023-03-03T22:58:25.489Z,14.31
2023-03-03T23:01:27.741Z,14.22
2023-03-03T23:04:29.889Z,14.03
2023-03-03T23:07:31.944Z,14.06
2023-03-03T23:10:34.543Z,14.03
2023-03-03T23:13:36.626Z,14.07
2023-03-03T23:16:38.673Z,13.97
2023-03-03T23:19:40.813Z,13.93
2023-03-03T23:22:42.769Z,13.74
2023-03-03T23:25:44.823Z,13.70
2023-03-03T23:28:46.979Z,13.59
2023-03-03T23:31:48.974Z,13.49
2023-03-03T23:34:54.223Z,13.43
2023-03-03T23:37:56.271Z,13.44
2023-03-03T23:40:58.319Z,13.32
2023-03-03T23:44:00.404Z,13.36
2023-03-03T23:47:02.495Z,13.36
2023-03-03T23:50:05.050Z,13.41
2023-03-03T23:53:07.998Z,13.44
2023-03-03T23:56:10.107Z,13.39
2023-03-03T23:59:12.184Z,13.37
